Time;durP1;ratioP1;P1;durP2;ratioP2;P2;SDS_P1;SDS_P2;PMS_P1;PMS_P2;Temp;Humidity;BMP_temperature;BMP_pressure;BME280_temperature;BME280_humidity;BME280_pressure;Samples;Min_cycle;Max_cycle;Signal;HPM_P1;HPM_P2
2022/04/02 00:00:58;;;;;;;4.40;2.40;;;0.40;94.60;;;;;;5037201;28;20048;-92
2022/04/02 00:03:39;;;;;;;4.85;2.47;;;0.20;94.80;;;;;;5038910;28;20048;-93
2022/04/02 00:06:10;;;;;;;6.97;2.40;;;0.20;95.00;;;;;;5016045;28;20064;-93
2022/04/02 00:08:39;;;;;;;4.13;1.92;;;0.20;95.20;;;;;;5005947;28;20048;-93
2022/04/02 00:11:10;;;;;;;4.82;2.20;;;0.10;95.30;;;;;;5021969;28;20555;-92
2022/04/02 00:13:51;;;;;;;4.40;2.70;;;0.10;95.40;;;;;;5016648;28;20055;-93
2022/04/02 00:16:19;;;;;;;3.50;2.03;;;0.10;95.40;;;;;;5016506;28;20044;-92
2022/04/02 00:18:49;;;;;;;5.65;2.42;;;0.10;95.60;;;;;;5020463;28;20049;-92
2022/04/02 00:21:40;;;;;;;4.32;2.50;;;-0.10;95.70;;;;;;5037452;28;20044;-93
2022/04/02 00:24:31;;;;;;;7.35;2.50;;;0.00;95.90;;;;;;5023506;28;20048;-93
2022/04/02 00:27:00;;;;;;;6.10;2.55;;;-0.10;96.10;;;;;;5020667;28;20520;-93
2022/04/02 00:29:39;;;;;;;4.50;2.30;;;-0.20;96.30;;;;;;5023406;28;20094;-93
2022/04/02 00:32:10;;;;;;;4.53;2.53;;;-0.30;96.60;;;;;;5021177;28;20191;-93
2022/04/02 00:35:03;;;;;;;3.03;1.92;;;-0.20;97.20;;;;;;5021727;28;20053;-93
2022/04/02 00:37:31;;;;;;;4.60;2.03;;;-0.20;97.10;;;;;;5024180;28;20497;-93
2022/04/02 00:40:09;;;;;;;3.88;2.40;;;-0.30;97.20;;;;;;5019623;28;20037;-93
2022/04/02 00:42:52;;;;;;;4.60;2.38;;;-0.10;97.60;;;;;;5027496;28;20040;-93
2022/04/02 00:45:49;;;;;;;4.32;2.40;;;-0.40;97.80;;;;;;5023039;28;20536;-94
2022/04/02 00:49:12;;;;;;;4.35;2.38;;;-0.30;97.90;;;;;;5025401;28;20486;-93
2022/04/02 00:51:58;;;;;;;4.20;2.50;;;-0.40;98.00;;;;;;5025527;28;20529;-92
2022/04/02 00:54:31;;;;;;;7.82;2.55;;;-0.40;98.30;;;;;;5038426;28;20045;-93
2022/04/02 00:57:10;;;;;;;;;;;;;;;;;;;;;
2022/04/02 00:59:39;;;;;;;4.43;2.20;;;-0.50;98.70;;;;;;5037102;28;20402;-93
2022/04/02 01:02:21;;;;;;;6.82;2.50;;;-0.50;98.80;;;;;;5033154;28;20494;-93
2022/04/02 01:05:12;;;;;;;6.63;2.47;;;-0.50;99.10;;;;;;4994022;28;20051;-92
2022/04/02 01:07:41;;;;;;;4.30;2.33;;;-0.50;99.10;;;;;;5017382;28;20061;-93
2022/04/02 01:10:22;;;;;;;3.90;2.20;;;-0.50;99.20;;;;;;5034094;28;20040;-93
2022/04/02 01:13:25;;;;;;;5.38;2.40;;;-0.60;99.50;;;;;;5034351;28;20120;-93
2022/04/02 01:16:08;;;;;;;4.38;2.53;;;-0.70;99.60;;;;;;5048468;28;20099;-94
2022/04/02 01:19:02;;;;;;;6.72;2.42;;;-0.80;99.60;;;;;;5015214;28;20056;-94
2022/04/02 01:21:59;;;;;;;6.40;2.28;;;-0.90;99.90;;;;;;5017963;28;20052;-92
2022/04/02 01:24:43;;;;;;;6.70;2.33;;;-0.80;99.90;;;;;;5001007;28;20546;-93
2022/04/02 01:27:12;;;;;;;7.72;2.92;;;-0.80;99.90;;;;;;5003841;28;20741;-93
2022/04/02 01:29:40;;;;;;;7.35;2.65;;;-0.90;99.90;;;;;;5016609;28;20040;-93
2022/04/02 01:32:29;;;;;;;3.50;2.33;;;-0.80;99.90;;;;;;5002044;28;20045;-93
2022/04/02 01:35:01;;;;;;;4.28;2.33;;;-0.80;99.90;;;;;;5019365;28;20045;-93
2022/04/02 01:37:53;;;;;;;4.68;2.33;;;-0.80;99.90;;;;;;5018775;28;20510;-93
2022/04/02 01:41:15;;;;;;;7.30;2.67;;;-0.80;99.90;;;;;;5041534;28;20083;-92
2022/04/02 01:43:54;;;;;;;8.75;2.67;;;-0.90;99.90;;;;;;4991355;28;20054;-92
2022/04/02 01:46:31;;;;;;;5.57;2.38;;;-1.00;99.90;;;;;;5027286;28;20048;-92
2022/04/02 01:49:00;;;;;;;5.22;2.58;;;-0.90;99.90;;;;;;5015379;28;20037;-94
2022/04/02 01:51:32;;;;;;;4.30;2.60;;;-1.00;99.90;;;;;;5016398;28;20133;-93
2022/04/02 01:54:12;;;;;;;5.07;2.70;;;-1.10;99.90;;;;;;5015764;28;20089;-93
2022/04/02 01:56:45;;;;;;;4.43;2.83;;;-1.10;99.90;;;;;;5029149;28;20065;-94
2022/04/02 01:59:57;;;;;;;5.55;2.67;;;-1.10;99.90;;;;;;5013995;28;20057;-93
2022/04/02 02:02:51;;;;;;;6.80;3.47;;;-1.10;99.90;;;;;;5035962;28;20052;-93
2022/04/02 02:05:23;;;;;;;7.75;3.05;;;-1.00;99.90;;;;;;5025226;28;20136;-93
2022/04/02 02:08:10;;;;;;;3.90;2.47;;;-1.00;99.90;;;;;;5041451;28;20046;-94
2022/04/02 02:10:51;;;;;;;5.20;3.38;;;-1.00;99.90;;;;;;5024651;28;20120;-93
2022/04/02 02:13:30;;;;;;;6.20;2.65;;;-1.10;99.90;;;;;;5034451;28;20085;-94
2022/04/02 02:16:25;;;;;;;6.72;2.60;;;-1.10;99.90;;;;;;5025189;28;20052;-94
2022/04/02 02:22:11;;;;;;;8.25;3.08;;;-1.20;99.90;;;;;;5022586;28;20100;-95
2022/04/02 02:25:02;;;;;;;;;;;;;;;;;;;;;
2022/04/02 02:27:53;;;;;;;8.05;2.55;;;-1.10;99.90;;;;;;5049375;28;20046;-93
2022/04/02 02:30:39;;;;;;;;;;;;;;;;;;;;;
2022/04/02 02:36:20;;;;;;;8.77;3.03;;;-1.10;99.90;;;;;;5027114;28;20049;-93
2022/04/02 02:39:01;;;;;;;5.75;2.70;;;-1.10;99.90;;;;;;5027486;28;20124;-92
2022/04/02 02:41:32;;;;;;;7.47;2.85;;;-0.90;99.90;;;;;;5047081;28;20042;-92
2022/04/02 02:44:02;;;;;;;7.60;2.97;;;-1.10;99.90;;;;;;5031797;28;20542;-92
2022/04/02 02:46:32;;;;;;;3.67;2.45;;;-1.10;99.90;;;;;;5014989;28;20442;-92
2022/04/02 02:49:00;;;;;;;5.15;2.67;;;-1.10;99.90;;;;;;5014568;28;20407;-92
2022/04/02 02:51:31;;;;;;;11.75;3.13;;;-1.10;99.90;;;;;;5005980;28;20073;-92
2022/04/02 02:54:00;;;;;;;8.63;2.92;;;-1.10;99.90;;;;;;5003208;28;20145;-92
2022/04/02 02:56:33;;;;;;;4.57;2.95;;;-1.10;99.90;;;;;;5014243;28;20124;-92
2022/04/02 02:59:02;;;;;;;7.25;2.83;;;-1.10;99.90;;;;;;5031011;28;20401;-91
2022/04/02 03:01:30;;;;;;;8.85;3.10;;;-1.00;99.90;;;;;;5028811;28;20050;-92
2022/04/02 03:04:06;;;;;;;;;;;;;;;;;;;;;
2022/04/02 03:06:58;;;;;;;;;;;-1.10;99.90;;;;;;5036545;28;20964;-93
2022/04/02 03:09:31;;;;;;;6.18;2.50;;;-1.10;99.90;;;;;;5046056;28;19944;-93
2022/04/02 03:12:00;;;;;;;6.10;2.80;;;-1.20;99.90;;;;;;5007572;28;20038;-93
2022/04/02 03:14:31;;;;;;;6.45;2.67;;;-1.10;99.90;;;;;;5015193;28;20049;-93
2022/04/02 03:17:03;;;;;;;6.68;2.92;;;-1.20;99.90;;;;;;5031513;28;20045;-91
2022/04/02 03:19:32;;;;;;;8.75;2.90;;;-1.20;99.90;;;;;;4999597;28;20565;-92
2022/04/02 03:22:21;;;;;;;5.38;3.25;;;-1.30;99.90;;;;;;5017855;28;20065;-92
2022/04/02 03:24:50;;;;;;;10.02;3.22;;;-1.30;99.90;;;;;;5016075;28;20097;-92
2022/04/02 03:27:21;;;;;;;6.32;2.78;;;-1.30;99.90;;;;;;5040115;28;20553;-92
2022/04/02 03:29:52;;;;;;;9.57;3.17;;;-1.30;99.90;;;;;;5031617;28;20048;-92
2022/04/02 03:32:21;;;;;;;7.90;3.13;;;-1.30;99.90;;;;;;5052329;28;20068;-91
2022/04/02 03:35:02;;;;;;;6.68;2.95;;;-1.40;99.90;;;;;;5022857;28;20574;-91
2022/04/02 03:37:41;;;;;;;7.65;2.97;;;-1.40;99.90;;;;;;5030422;28;20119;-91
2022/04/02 03:40:23;;;;;;;6.97;2.92;;;-1.40;99.90;;;;;;5018269;28;20071;-91
2022/04/02 03:42:52;;;;;;;5.82;2.63;;;-1.40;99.90;;;;;;5034460;28;20041;-92
2022/04/02 03:45:22;;;;;;;5.90;3.17;;;-1.40;99.90;;;;;;5017431;28;20431;-91
2022/04/02 03:47:51;;;;;;;8.73;3.03;;;-1.40;99.90;;;;;;5034553;28;20228;-92
2022/04/02 03:50:19;;;;;;;7.32;3.08;;;-1.40;99.90;;;;;;5017626;28;20049;-92
2022/04/02 03:52:45;;;;;;;6.50;2.95;;;-1.50;99.90;;;;;;5034020;28;20101;-92
2022/04/02 03:55:14;;;;;;;7.97;2.90;;;-1.60;99.90;;;;;;5016574;28;20136;-92
2022/04/02 03:57:50;;;;;;;6.75;2.88;;;-1.50;99.90;;;;;;5017440;28;20041;-93
2022/04/02 04:00:21;;;;;;;5.03;2.97;;;-1.50;99.90;;;;;;5017203;28;20049;-91
2022/04/02 04:02:50;;;;;;;6.97;2.90;;;-1.50;99.90;;;;;;5002002;28;20046;-91
2022/04/02 04:05:43;;;;;;;5.78;2.92;;;-1.50;99.90;;;;;;5016800;28;20049;-91
2022/04/02 04:08:31;;;;;;;6.45;3.35;;;-1.60;99.90;;;;;;5003314;28;20041;-93
2022/04/02 04:10:59;;;;;;;6.70;2.85;;;-1.60;99.90;;;;;;5019672;28;20490;-92
2022/04/02 04:13:40;;;;;;;;;;;;;;;;;;;;;
2022/04/02 04:16:29;;;;;;;5.38;3.03;;;-1.70;99.90;;;;;;5018025;28;20060;-93
2022/04/02 04:18:59;;;;;;;4.75;2.88;;;-1.70;99.90;;;;;;5017316;28;20056;-91
2022/04/02 04:21:28;;;;;;;6.68;2.95;;;-1.70;99.90;;;;;;5017170;28;20153;-92
2022/04/02 04:24:03;;;;;;;6.78;2.50;;;-1.80;99.90;;;;;;5033533;28;20068;-91
2022/04/02 04:26:33;;;;;;;7.80;3.28;;;-1.80;99.90;;;;;;5030107;28;20041;-92
2022/04/02 04:29:02;;;;;;;6.10;2.58;;;-1.70;99.90;;;;;;5001525;28;20053;-92
2022/04/02 04:31:38;;;;;;;7.47;2.83;;;-1.70;99.90;;;;;;5015062;28;20041;-91
2022/04/02 04:34:20;;;;;;;6.15;2.58;;;-1.80;99.90;;;;;;5001493;28;20433;-91
2022/04/02 04:37:01;;;;;;;5.25;2.45;;;-1.70;99.90;;;;;;5018498;28;20517;-95
2022/04/02 04:39:39;;;;;;;9.85;3.00;;;-1.70;99.90;;;;;;5012440;28;20202;-94
2022/04/02 04:42:10;;;;;;;9.38;3.80;;;-1.70;99.90;;;;;;5021238;28;20064;-93
2022/04/02 04:45:00;;;;;;;8.65;2.92;;;-1.60;99.90;;;;;;5021115;28;20497;-93
2022/04/02 04:47:30;;;;;;;4.10;2.30;;;-1.70;99.90;;;;;;5021166;28;20376;-92
2022/04/02 04:50:06;;;;;;;;;;;;;;;;;;;;;
2022/04/02 04:52:32;;;;;;;6.07;3.35;;;-1.70;99.90;;;;;;5039152;28;20056;-94
2022/04/02 04:55:01;;;;;;;7.75;2.90;;;-1.70;99.90;;;;;;5020419;28;20049;-93
2022/04/02 04:57:32;;;;;;;8.25;2.47;;;-1.70;99.90;;;;;;5021211;28;20083;-94
2022/04/02 05:00:11;;;;;;;6.13;2.80;;;-1.70;99.90;;;;;;5019645;28;20119;-94
2022/04/02 05:02:39;;;;;;;5.85;2.72;;;-1.70;99.90;;;;;;5013131;28;20367;-92
2022/04/02 05:05:31;;;;;;;4.60;2.40;;;-1.60;99.90;;;;;;5036417;28;20041;-92
2022/04/02 05:08:00;;;;;;;10.38;3.00;;;-1.60;99.90;;;;;;5004098;28;20127;-92
2022/04/02 05:10:32;;;;;;;10.35;3.20;;;-1.70;99.90;;;;;;5025490;28;20475;-92
2022/04/02 05:13:01;;;;;;;6.85;2.78;;;-1.50;99.90;;;;;;5052194;28;20055;-93
2022/04/02 05:15:30;;;;;;;6.15;2.63;;;-1.50;99.90;;;;;;5035678;28;20645;-92
2022/04/02 05:17:59;;;;;;;11.65;2.92;;;-1.60;99.90;;;;;;5034790;28;20466;-92
2022/04/02 05:20:39;;;;;;;7.30;3.42;;;-1.60;99.90;;;;;;5018004;28;20049;-91
2022/04/02 05:23:14;;;;;;;7.65;2.88;;;-1.50;99.90;;;;;;5017096;28;20048;-91
2022/04/02 05:25:39;;;;;;;6.75;2.78;;;-1.40;99.90;;;;;;5018714;28;20048;-91
2022/04/02 05:28:13;;;;;;;9.43;3.33;;;-1.40;99.90;;;;;;5018182;28;20075;-91
2022/04/02 05:30:41;;;;;;;8.00;3.72;;;-1.30;99.90;;;;;;5004658;28;20364;-92
2022/04/02 05:33:11;;;;;;;6.68;2.80;;;-1.10;99.90;;;;;;5018922;28;20056;-93
2022/04/02 05:36:02;;;;;;;6.30;2.80;;;-1.10;99.90;;;;;;5003167;28;20045;-91
2022/04/02 05:38:31;;;;;;;9.18;3.50;;;-0.80;99.90;;;;;;5025497;28;20056;-92
2022/04/02 05:41:19;;;;;;;8.52;2.95;;;-0.90;99.90;;;;;;5016504;28;20066;-93
2022/04/02 05:43:52;;;;;;;6.65;3.33;;;-0.80;99.90;;;;;;4998401;28;20053;-92
2022/04/02 05:46:32;;;;;;;;;;;;;;;;;;;;;
2022/04/02 05:49:02;;;;;;;8.98;4.32;;;-0.70;99.90;;;;;;5033384;28;20053;-92
2022/04/02 05:51:31;;;;;;;7.32;3.15;;;-0.70;99.90;;;;;;5017024;28;20060;-92
2022/04/02 05:54:27;;;;;;;;;;;;;;;;;;;;;
2022/04/02 05:57:02;;;;;;;6.45;3.10;;;-0.60;99.90;;;;;;5030497;28;20091;-91
2022/04/02 05:59:33;;;;;;;9.13;3.15;;;-0.60;99.90;;;;;;5017546;28;20037;-91
2022/04/02 06:02:01;;;;;;;9.70;3.58;;;-0.50;99.90;;;;;;5034477;28;20079;-92
2022/04/02 06:04:30;;;;;;;9.40;3.22;;;-0.50;99.90;;;;;;5018223;28;20108;-93
2022/04/02 06:07:12;;;;;;;7.85;3.20;;;-0.40;99.90;;;;;;5001556;28;20052;-92
2022/04/02 06:10:03;;;;;;;7.82;3.22;;;-0.40;99.90;;;;;;5018476;28;20122;-93
2022/04/02 06:12:41;;;;;;;5.95;3.00;;;-0.20;99.90;;;;;;5013009;28;20486;-92
2022/04/02 06:15:13;;;;;;;11.43;3.20;;;-0.10;99.90;;;;;;5018739;28;20056;-91
2022/04/02 06:17:42;;;;;;;6.70;3.28;;;0.10;99.90;;;;;;5012707;28;20072;-93
2022/04/02 06:20:11;;;;;;;8.60;3.53;;;0.30;99.90;;;;;;5030092;28;20538;-90
2022/04/02 06:22:39;;;;;;;6.57;3.17;;;0.50;99.90;;;;;;5020767;28;20056;-92
2022/04/02 06:25:20;;;;;;;7.15;3.25;;;0.80;99.90;;;;;;5018608;28;20052;-93
2022/04/02 06:27:54;;;;;;;6.32;3.45;;;0.90;99.90;;;;;;5003477;28;20052;-93
2022/04/02 06:30:40;;;;;;;6.43;3.20;;;1.20;99.90;;;;;;5020214;28;20759;-93
2022/04/02 06:33:32;;;;;;;7.47;2.97;;;1.40;99.90;;;;;;5019443;28;20102;-93
2022/04/02 06:36:02;;;;;;;7.00;2.97;;;1.60;99.90;;;;;;5030556;28;20111;-93
2022/04/02 06:38:33;;;;;;;6.10;3.00;;;1.70;99.90;;;;;;4999236;28;20398;-92
2022/04/02 06:41:02;;;;;;;7.55;3.75;;;1.90;99.90;;;;;;5019248;28;20338;-92
2022/04/02 06:43:47;;;;;;;10.32;2.85;;;2.10;99.90;;;;;;5017374;28;20041;-90
2022/04/02 06:46:16;;;;;;;6.90;2.90;;;2.30;99.90;;;;;;5001356;28;20375;-88
2022/04/02 06:48:44;;;;;;;5.28;2.70;;;2.30;99.90;;;;;;5019005;28;20102;-90
2022/04/02 06:51:12;;;;;;;7.07;3.00;;;2.40;99.90;;;;;;5001158;28;20044;-92
2022/04/02 06:53:50;;;;;;;6.55;3.20;;;2.50;99.90;;;;;;5017507;28;20115;-91
2022/04/02 06:56:16;;;;;;;6.88;3.20;;;2.60;99.90;;;;;;5022329;28;20119;-90
2022/04/02 07:01:54;;;;;;;5.28;2.95;;;2.80;99.90;;;;;;5021846;28;20056;-88
2022/04/02 07:04:27;;;;;;;6.32;2.95;;;2.90;99.90;;;;;;4995580;28;20672;-93
2022/04/02 07:06:56;;;;;;;9.82;3.17;;;3.00;99.90;;;;;;5018534;28;20107;-92
2022/04/02 07:09:22;;;;;;;7.07;3.08;;;3.00;99.90;;;;;;5019825;28;20524;-89
2022/04/02 07:11:48;;;;;;;7.15;2.97;;;3.10;99.90;;;;;;5015572;28;20041;-90
2022/04/02 07:14:14;;;;;;;6.45;2.70;;;3.20;99.90;;;;;;5005001;28;20044;-89
2022/04/02 07:16:39;;;;;;;9.30;2.92;;;3.30;99.90;;;;;;5020246;28;20099;-89
2022/04/02 07:19:05;;;;;;;5.75;2.88;;;3.30;99.90;;;;;;5021595;28;20052;-90
2022/04/02 07:21:33;;;;;;;5.82;2.58;;;3.40;99.90;;;;;;5036516;28;20041;-90
2022/04/02 07:24:01;;;;;;;6.05;2.97;;;3.40;99.90;;;;;;5024009;28;20059;-93
2022/04/02 07:26:28;;;;;;;5.60;2.30;;;3.60;99.90;;;;;;5041744;28;20040;-94
2022/04/02 07:28:59;;;;;;;8.52;3.00;;;3.60;99.90;;;;;;5022778;28;20036;-89
2022/04/02 07:31:28;;;;;;;6.35;2.80;;;3.60;99.90;;;;;;5017694;28;20049;-91
2022/04/02 07:33:59;;;;;;;4.50;2.60;;;3.70;99.90;;;;;;5020598;28;20471;-91
2022/04/02 07:36:44;;;;;;;4.43;2.28;;;3.70;99.90;;;;;;5019663;28;20040;-89
2022/04/02 07:39:13;;;;;;;7.82;2.40;;;3.80;98.30;;;;;;5018816;28;20071;-92
2022/04/02 07:42:00;;;;;;;5.10;2.58;;;3.90;99.80;;;;;;5024872;28;20089;-95
2022/04/02 07:44:54;;;;;;;4.72;2.60;;;4.00;99.90;;;;;;5015300;28;20064;-93
2022/04/02 07:47:26;;;;;;;7.75;2.55;;;4.20;98.60;;;;;;5023835;28;20041;-93
2022/04/02 07:50:00;;;;;;;8.80;2.67;;;4.40;98.70;;;;;;5038384;28;20041;-92
2022/04/02 07:52:27;;;;;;;8.10;2.60;;;4.50;97.90;;;;;;5034387;28;20479;-84
2022/04/02 07:54:56;;;;;;;5.20;2.22;;;4.50;97.60;;;;;;5023588;28;20053;-93
2022/04/02 07:57:30;;;;;;;8.02;2.80;;;4.60;97.50;;;;;;5026115;28;20040;-88
2022/04/02 08:00:03;;;;;;;6.78;2.58;;;4.70;97.60;;;;;;5016669;28;20053;-93
2022/04/02 08:02:42;;;;;;;4.40;2.30;;;4.80;96.40;;;;;;5019904;28;20095;-91
2022/04/02 08:05:14;;;;;;;6.95;2.45;;;4.90;96.20;;;;;;5038685;28;20494;-93
2022/04/02 08:07:57;;;;;;;3.33;1.90;;;5.00;94.10;;;;;;5020073;28;20064;-94
2022/04/02 08:10:45;;;;;;;;;;;;;;;;;;;;;
2022/04/02 08:13:47;;;;;;;;;;;;;;;;;;;;;
2022/04/02 08:16:23;;;;;;;4.88;2.00;;;4.90;91.80;;;;;;5025985;28;20056;-92
2022/04/02 08:19:03;;;;;;;6.32;2.00;;;4.90;94.00;;;;;;5027926;28;20051;-91
2022/04/02 08:22:10;;;;;;;3.95;1.73;;;4.70;93.70;;;;;;5041670;28;20087;-94
2022/04/02 08:24:45;;;;;;;4.65;1.75;;;4.60;93.70;;;;;;5042499;28;20095;-93
2022/04/02 08:27:54;;;;;;;3.30;2.25;;;4.70;94.30;;;;;;5010070;28;20041;-94
2022/04/02 08:31:07;;;;;;;4.95;2.00;;;4.70;94.40;;;;;;5026767;28;20116;-94
2022/04/02 08:34:10;;;;;;;6.60;2.20;;;4.80;94.30;;;;;;5004719;28;20068;-93
2022/04/02 08:37:08;;;;;;;4.35;2.00;;;4.70;95.00;;;;;;4998571;28;20091;-93
2022/04/02 08:39:54;;;;;;;4.47;2.00;;;4.70;94.90;;;;;;5013895;28;20050;-95
2022/04/02 08:42:46;;;;;;;5.47;2.53;;;4.80;94.60;;;;;;5001424;28;20438;-93
2022/04/02 08:45:14;;;;;;;4.72;2.10;;;4.90;94.70;;;;;;5001756;28;20144;-95
2022/04/02 08:48:14;;;;;;;5.90;1.85;;;5.10;94.90;;;;;;5002731;28;20042;-93
2022/04/02 08:51:06;;;;;;;4.88;2.03;;;5.10;92.90;;;;;;5002811;28;20049;-93
2022/04/02 08:53:52;;;;;;;4.78;1.98;;;5.20;92.10;;;;;;4995468;28;20050;-94
2022/04/02 08:56:25;;;;;;;6.63;2.83;;;5.20;93.40;;;;;;5019840;28;20053;-93
2022/04/02 08:59:01;;;;;;;4.55;1.63;;;5.30;94.00;;;;;;5000713;28;20046;-94
2022/04/02 09:02:11;;;;;;;4.50;1.92;;;5.50;93.10;;;;;;5003291;28;20100;-93
2022/04/02 09:04:55;;;;;;;5.82;2.20;;;5.70;90.90;;;;;;5002920;28;20077;-93
2022/04/02 09:07:51;;;;;;;5.13;2.15;;;5.80;92.80;;;;;;5002712;28;20072;-91
2022/04/02 09:10:26;;;;;;;6.05;1.58;;;6.20;92.10;;;;;;4976448;28;20045;-95
2022/04/02 09:13:22;;;;;;;5.47;2.13;;;6.40;91.60;;;;;;4999938;28;20139;-93
2022/04/02 09:16:05;;;;;;;4.70;1.70;;;6.50;89.10;;;;;;5014844;28;20077;-93
2022/04/02 09:18:40;;;;;;;4.88;1.75;;;6.70;90.70;;;;;;5016786;28;20488;-94
2022/04/02 09:21:21;;;;;;;5.20;1.85;;;6.70;90.20;;;;;;5004969;28;20046;-93
2022/04/02 09:24:23;;;;;;;5.13;1.55;;;6.50;87.80;;;;;;5016763;28;20542;-90
2022/04/02 09:27:36;;;;;;;4.20;1.60;;;6.10;83.10;;;;;;5014657;28;20034;-90
2022/04/02 09:30:15;;;;;;;4.50;1.20;;;5.80;86.30;;;;;;5006086;28;20046;-88
2022/04/02 09:32:57;;;;;;;6.93;1.38;;;5.60;87.70;;;;;;4992418;28;20057;-87
2022/04/02 09:35:59;;;;;;;3.78;1.42;;;5.30;88.00;;;;;;4993376;28;20057;-87
2022/04/02 09:38:43;;;;;;;5.63;1.58;;;5.10;86.70;;;;;;5006507;28;20057;-88
2022/04/02 09:41:16;;;;;;;3.92;1.90;;;4.90;89.50;;;;;;5029235;28;20505;-86
2022/04/02 09:43:55;;;;;;;3.92;1.60;;;5.00;90.50;;;;;;5012361;28;20045;-89
2022/04/02 09:46:23;;;;;;;4.85;1.42;;;4.90;90.40;;;;;;5029136;28;20046;-87
2022/04/02 09:49:02;;;;;;;2.38;1.40;;;5.00;90.90;;;;;;5011886;28;20486;-87
2022/04/02 09:52:06;;;;;;;2.05;1.25;;;5.10;89.50;;;;;;5029154;28;20077;-86
2022/04/02 09:54:44;;;;;;;4.22;1.70;;;5.10;87.30;;;;;;5011968;28;20056;-86
2022/04/02 09:57:22;;;;;;;2.13;1.30;;;5.10;90.10;;;;;;5012395;28;20542;-87
2022/04/02 10:00:20;;;;;;;1.75;1.20;;;5.20;88.50;;;;;;5008257;28;20112;-87
2022/04/02 10:03:08;;;;;;;2.65;1.50;;;5.50;82.80;;;;;;4991596;28;20054;-88
2022/04/02 10:05:46;;;;;;;2.50;1.02;;;6.10;82.90;;;;;;5007976;28;20135;-86
2022/04/02 10:08:37;;;;;;;6.10;1.50;;;6.90;83.50;;;;;;4992431;28;20049;-88
2022/04/02 10:11:06;;;;;;;4.07;1.27;;;7.70;78.10;;;;;;4992535;28;20061;-87
2022/04/02 10:13:35;;;;;;;4.47;1.27;;;8.30;74.60;;;;;;5008624;28;20056;-86
2022/04/02 10:16:04;;;;;;;4.55;1.10;;;9.00;71.70;;;;;;4992550;28;20050;-89
2022/04/02 10:18:35;;;;;;;1.80;1.00;;;9.40;65.50;;;;;;4992595;28;20045;-87
2022/04/02 10:21:06;;;;;;;2.92;1.30;;;9.20;63.50;;;;;;5008927;28;20057;-87
2022/04/02 10:23:36;;;;;;;2.47;1.10;;;8.50;65.90;;;;;;4992133;28;20046;-87
2022/04/02 10:26:12;;;;;;;1.77;1.33;;;7.50;67.10;;;;;;4992504;28;20054;-87
2022/04/02 10:28:54;;;;;;;6.63;1.65;;;6.90;74.10;;;;;;4991825;28;20053;-88
2022/04/02 10:31:47;;;;;;;2.88;1.20;;;6.60;77.20;;;;;;5012911;28;20074;-87
2022/04/02 10:34:38;;;;;;;3.95;1.77;;;6.70;80.70;;;;;;5012900;28;20072;-86
2022/04/02 10:37:14;;;;;;;2.40;1.20;;;6.80;80.40;;;;;;5015235;28;20088;-87
2022/04/02 10:39:46;;;;;;;;;;;6.90;79.50;;;;;;5032147;28;20049;-87
2022/04/02 10:42:18;;;;;;;3.17;1.30;;;6.80;72.80;;;;;;5015847;28;19984;-88
2022/04/02 10:44:57;;;;;;;2.67;1.30;;;7.10;80.00;;;;;;5015379;28;20049;-87
2022/04/02 10:47:27;;;;;;;2.72;1.23;;;7.60;75.00;;;;;;5015701;28;20325;-88
2022/04/02 10:50:03;;;;;;;3.97;1.20;;;8.10;73.50;;;;;;5015255;28;20053;-88
2022/04/02 10:52:33;;;;;;;2.10;1.27;;;8.10;70.90;;;;;;5015784;28;20049;-87
2022/04/02 10:54:58;;;;;;;4.00;1.33;;;8.20;70.40;;;;;;5008786;28;20102;-87
2022/04/02 10:57:28;;;;;;;3.40;1.25;;;8.80;69.00;;;;;;5018790;28;20425;-88
2022/04/02 11:00:03;;;;;;;3.70;1.38;;;9.90;67.80;;;;;;5018168;28;20051;-87
2022/04/02 11:02:37;;;;;;;3.15;1.40;;;10.50;60.70;;;;;;5018680;28;20049;-86
2022/04/02 11:05:08;;;;;;;4.00;1.38;;;10.50;53.60;;;;;;5018834;28;20084;-87
2022/04/02 11:07:52;;;;;;;3.00;1.33;;;9.70;57.20;;;;;;5034697;28;20114;-87
2022/04/02 11:10:23;;;;;;;2.17;1.08;;;9.00;59.50;;;;;;5035386;28;20055;-87
2022/04/02 11:13:00;;;;;;;3.40;1.40;;;8.30;59.90;;;;;;5018187;28;20040;-87
2022/04/02 11:15:27;;;;;;;5.57;1.50;;;7.60;61.30;;;;;;5035292;28;20052;-88
2022/04/02 11:17:56;;;;;;;3.13;1.50;;;7.10;67.00;;;;;;5001905;28;20128;-86
2022/04/02 11:20:28;;;;;;;4.72;1.60;;;6.50;71.00;;;;;;5018640;28;20075;-87
2022/04/02 11:22:57;;;;;;;3.03;1.63;;;5.80;74.40;;;;;;5018016;28;20052;-88
2022/04/02 11:25:31;;;;;;;3.65;1.70;;;5.50;77.40;;;;;;5018717;28;20057;-89
2022/04/02 11:28:13;;;;;;;3.00;1.20;;;5.30;79.40;;;;;;5018022;28;20041;-88
2022/04/02 11:30:46;;;;;;;2.55;1.20;;;5.30;76.40;;;;;;5017866;28;20110;-87
2022/04/02 11:33:26;;;;;;;2.65;1.23;;;5.30;77.60;;;;;;5018451;28;20496;-87
2022/04/02 11:35:56;;;;;;;5.32;1.80;;;5.50;79.90;;;;;;5017581;28;20052;-87
2022/04/02 11:38:52;;;;;;;3.40;1.48;;;5.80;79.60;;;;;;5014151;28;20069;-88
2022/04/02 11:41:20;;;;;;;4.03;1.60;;;6.30;78.60;;;;;;5014955;28;20148;-88
2022/04/02 11:43:47;;;;;;;1.98;1.27;;;7.00;76.80;;;;;;5014221;28;20049;-88
2022/04/02 11:46:15;;;;;;;3.90;1.38;;;7.60;72.90;;;;;;5014745;28;20049;-89
2022/04/02 11:48:55;;;;;;;2.05;1.13;;;7.80;71.50;;;;;;5030441;28;20111;-88
2022/04/02 11:51:30;;;;;;;1.80;1.00;;;8.30;69.20;;;;;;5031055;28;20045;-88
2022/04/02 11:54:10;;;;;;;5.53;1.20;;;8.80;68.90;;;;;;5030654;28;20045;-88
2022/04/02 11:56:48;;;;;;;2.65;1.00;;;9.70;60.50;;;;;;5014480;28;20085;-88
2022/04/02 11:59:16;;;;;;;3.00;1.15;;;10.00;59.20;;;;;;5014505;28;20041;-88
2022/04/02 12:01:49;;;;;;;1.50;0.85;;;10.20;58.50;;;;;;5013865;28;20049;-88
2022/04/02 12:04:25;;;;;;;4.68;1.58;;;10.20;55.90;;;;;;5014249;28;20045;-88
2022/04/02 12:07:08;;;;;;;1.92;1.13;;;10.10;55.60;;;;;;5029509;28;20061;-87
2022/04/02 12:09:49;;;;;;;3.92;1.80;;;10.00;56.80;;;;;;5031391;28;20087;-87
2022/04/02 12:12:24;;;;;;;3.22;1.40;;;10.10;55.30;;;;;;5030646;28;20053;-88
2022/04/02 12:15:00;;;;;;;;;;;;;;;;;;;;;
2022/04/02 12:17:37;;;;;;;3.42;1.20;;;10.10;54.10;;;;;;5030704;28;20044;-88
2022/04/02 12:20:07;;;;;;;6.00;1.60;;;9.30;52.30;;;;;;5013574;28;20052;-87
2022/04/02 12:22:36;;;;;;;2.35;1.20;;;8.60;55.10;;;;;;5030494;28;20045;-87
2022/04/02 12:25:08;;;;;;;2.00;1.10;;;8.30;56.70;;;;;;5013407;28;20635;-88
2022/04/02 12:27:38;;;;;;;3.13;1.20;;;8.50;56.20;;;;;;4997909;28;20050;-87
2022/04/02 12:30:09;;;;;;;4.10;1.15;;;9.00;56.20;;;;;;4997389;28;20063;-87
2022/04/02 12:32:48;;;;;;;4.88;1.00;;;9.70;53.10;;;;;;5013528;28;20136;-87
2022/04/02 12:35:26;;;;;;;2.08;0.90;;;10.90;52.30;;;;;;5013600;28;20149;-87
2022/04/02 12:37:57;;;;;;;2.70;0.90;;;12.60;44.50;;;;;;5030531;28;20144;-87
2022/04/02 12:40:25;;;;;;;3.25;0.90;;;13.00;46.30;;;;;;5016443;28;20159;-87
2022/04/02 12:42:56;;;;;;;3.03;0.90;;;12.90;45.80;;;;;;5032919;28;20059;-88
2022/04/02 12:45:24;;;;;;;3.47;0.90;;;12.70;44.10;;;;;;5016839;28;20060;-87
2022/04/02 12:48:20;;;;;;;1.88;1.08;;;12.30;44.20;;;;;;5032410;28;20520;-87
2022/04/02 12:50:55;;;;;;;1.35;1.17;;;11.90;41.60;;;;;;5016205;28;20087;-87
2022/04/02 12:53:38;;;;;;;3.45;0.90;;;13.20;41.60;;;;;;5015936;28;20150;-88
2022/04/02 12:56:06;;;;;;;4.47;1.23;;;13.70;39.80;;;;;;5015962;28;20049;-88
2022/04/02 12:58:49;;;;;;;1.73;0.88;;;13.90;41.30;;;;;;5016125;28;20448;-88
2022/04/02 13:01:32;;;;;;;5.60;1.20;;;14.80;38.60;;;;;;5032625;28;20407;-87
2022/04/02 13:04:08;;;;;;;2.92;1.20;;;15.50;36.60;;;;;;5032283;28;20040;-86
2022/04/02 13:06:46;;;;;;;3.40;1.10;;;15.30;38.80;;;;;;5016188;28;20076;-85
2022/04/02 13:09:22;;;;;;;3.42;1.38;;;14.50;36.10;;;;;;5015992;28;20052;-84
2022/04/02 13:12:02;;;;;;;5.07;1.38;;;14.60;38.50;;;;;;5015845;28;20053;-86
2022/04/02 13:14:42;;;;;;;5.57;1.48;;;14.20;36.60;;;;;;5032693;28;20049;-85
2022/04/02 13:17:18;;;;;;;2.78;1.20;;;12.70;40.20;;;;;;5032263;28;20551;-85
2022/04/02 13:22:40;;;;;;;4.45;1.42;;;10.20;44.70;;;;;;5032756;28;20071;-86
2022/04/02 13:25:12;;;;;;;2.20;1.10;;;9.40;45.90;;;;;;5015659;28;20092;-85
2022/04/02 13:28:00;;;;;;;3.00;1.20;;;8.80;46.70;;;;;;5031879;28;20131;-85
2022/04/02 13:30:36;;;;;;;2.35;1.20;;;8.30;45.80;;;;;;5016009;28;20049;-86
2022/04/02 13:33:42;;;;;;;2.83;1.20;;;7.90;47.80;;;;;;5015547;28;20041;-85
2022/04/02 13:36:20;;;;;;;5.47;1.50;;;7.90;49.10;;;;;;5031924;28;20055;-85
2022/04/02 13:38:57;;;;;;;3.40;1.45;;;9.50;49.40;;;;;;5015319;28;20140;-86
2022/04/02 13:41:27;;;;;;;2.53;1.30;;;11.70;45.10;;;;;;5032402;28;20044;-84
2022/04/02 13:43:55;;;;;;;4.15;1.50;;;13.50;42.20;;;;;;5015188;28;20078;-85
2022/04/02 13:46:44;;;;;;;2.50;1.40;;;13.40;42.00;;;;;;5015918;28;20092;-86
2022/04/02 13:49:19;;;;;;;6.38;1.77;;;12.30;42.30;;;;;;5031551;28;20045;-85
2022/04/02 13:51:55;;;;;;;2.92;1.20;;;11.70;43.70;;;;;;5015776;28;20053;-86
2022/04/02 13:54:22;;;;;;;4.72;1.30;;;11.80;42.80;;;;;;5015755;28;20049;-86
2022/04/02 13:56:57;;;;;;;8.55;3.00;;;11.60;43.00;;;;;;5015056;28;20053;-85
2022/04/02 13:59:30;;;;;;;7.40;3.38;;;11.20;42.60;;;;;;5015605;28;20045;-85
2022/04/02 14:01:57;;;;;;;2.38;1.23;;;11.20;44.30;;;;;;5031605;28;20407;-85
2022/04/02 14:04:35;;;;;;;2.50;1.20;;;12.10;42.80;;;;;;4999253;28;20049;-85
2022/04/02 14:07:06;;;;;;;4.68;1.98;;;11.80;39.50;;;;;;5031466;28;20405;-85
2022/04/02 14:09:35;;;;;;;6.70;2.70;;;10.70;40.60;;;;;;5033536;28;20041;-85
2022/04/02 14:12:04;;;;;;;5.63;2.70;;;10.00;43.50;;;;;;5051411;28;20494;-85